createdAt,value
2018-07-05T00:00:08.152Z,101220.37
2018-07-05T00:02:48.232Z,101210.58
2018-07-05T00:05:28.365Z,101225.65
2018-07-05T00:08:08.468Z,101213.73
2018-07-05T00:10:48.675Z,101227.75
2018-07-05T00:13:28.737Z,101238.95
2018-07-05T00:16:08.827Z,101235.66
2018-07-05T00:18:50.153Z,101233.94
2018-07-05T00:21:30.381Z,101227.20
2018-07-05T00:24:10.816Z,101224.09
2018-07-05T00:26:50.493Z,101228.66
2018-07-05T00:29:30.371Z,101227.84
2018-07-05T00:32:10.340Z,101231.58
2018-07-05T00:34:50.930Z,101224.15
2018-07-05T00:37:30.847Z,101224.73
2018-07-05T00:40:10.714Z,101219.59
2018-07-05T00:42:50.643Z,101221.31
2018-07-05T00:45:30.657Z,101220.59
2018-07-05T00:48:10.520Z,101219.36
2018-07-05T00:50:50.265Z,101216.63
2018-07-05T00:53:30.737Z,101210.44
2018-07-05T00:56:10.793Z,101212.14
2018-07-05T00:58:50.642Z,101216.01
2018-07-05T01:01:30.679Z,101210.77
2018-07-05T01:04:10.877Z,101203.14
2018-07-05T01:06:50.688Z,101199.69
2018-07-05T01:09:30.473Z,101199.11
2018-07-05T01:12:18.116Z,101208.80
2018-07-05T01:14:58.131Z,101210.84
2018-07-05T01:17:38.417Z,101200.78
2018-07-05T01:20:18.226Z,101198.36
2018-07-05T01:23:00.831Z,101200.98
2018-07-05T01:25:40.956Z,101193.91
2018-07-05T01:28:21.217Z,101194.24
2018-07-05T01:31:01.409Z,101193.32
2018-07-05T01:33:41.706Z,101197.05
2018-07-05T01:36:22.149Z,101193.86
2018-07-05T01:39:02.632Z,101195.67
2018-07-05T01:41:42.912Z,101201.89
2018-07-05T01:44:22.952Z,101204.41
2018-07-05T01:47:02.935Z,101208.38
2018-07-05T01:49:43.124Z,101213.77
2018-07-05T01:52:23.176Z,101213.96
2018-07-05T01:55:03.146Z,101214.64
2018-07-05T01:57:43.177Z,101213.61
2018-07-05T02:00:23.057Z,101211.85
2018-07-05T02:03:02.979Z,101221.91
2018-07-05T02:05:42.799Z,101208.57
2018-07-05T02:08:22.879Z,101201.98
2018-07-05T02:11:02.891Z,101202.77
2018-07-05T02:13:42.764Z,101206.77
2018-07-05T02:16:22.642Z,101190.91
2018-07-05T02:19:02.815Z,101194.13
2018-07-05T02:21:42.675Z,101195.02
2018-07-05T02:24:22.787Z,101199.45
2018-07-05T02:27:02.768Z,101188.61
2018-07-05T02:29:42.592Z,101183.67
2018-07-05T02:32:22.679Z,101184.11
2018-07-05T02:35:02.565Z,101180.44
2018-07-05T02:37:47.706Z,101180.20
2018-07-05T02:40:27.823Z,101173.46
2018-07-05T02:43:07.948Z,101170.52
2018-07-05T02:45:48.013Z,101180.42
2018-07-05T02:48:28.363Z,101178.23
2018-07-05T02:51:08.547Z,101186.67
2018-07-05T02:53:48.764Z,101190.69
2018-07-05T02:56:28.514Z,101185.77
2018-07-05T02:59:08.466Z,101188.50
2018-07-05T03:01:48.436Z,101186.34
2018-07-05T03:04:28.507Z,101194.88
2018-07-05T03:07:09.193Z,101196.34
2018-07-05T03:09:49.318Z,101195.63
2018-07-05T03:12:29.227Z,101193.84
2018-07-05T03:15:09.509Z,101186.73
2018-07-05T03:17:49.411Z,101191.16
2018-07-05T03:20:29.480Z,101182.00
2018-07-05T03:23:09.685Z,101183.70
2018-07-05T03:25:49.965Z,101184.61
2018-07-05T03:28:29.752Z,101174.73
2018-07-05T03:31:09.921Z,101180.59
2018-07-05T03:33:50.078Z,101188.78
2018-07-05T03:36:30.118Z,101192.83
2018-07-05T03:39:10.108Z,101188.59
2018-07-05T03:41:50.286Z,101196.53
2018-07-05T03:44:30.274Z,101198.39
2018-07-05T03:47:10.394Z,101202.86
2018-07-05T03:49:50.236Z,101201.66
2018-07-05T03:52:30.150Z,101191.62
2018-07-05T03:55:10.023Z,101184.59
2018-07-05T03:57:50.004Z,101178.55
2018-07-05T04:00:29.727Z,101173.80
2018-07-05T04:03:14.497Z,101175.66
2018-07-05T04:05:54.603Z,101168.42
2018-07-05T04:08:34.728Z,101163.66
2018-07-05T04:11:14.552Z,101166.72
2018-07-05T04:13:54.391Z,101164.94
2018-07-05T04:16:34.252Z,101165.55
2018-07-05T04:19:14.721Z,101165.13
2018-07-05T04:21:54.667Z,101164.47
2018-07-05T04:24:34.602Z,101170.91
2018-07-05T04:27:14.394Z,101184.64
2018-07-05T04:29:54.234Z,101184.06
2018-07-05T04:32:34.245Z,101190.11
2018-07-05T04:35:14.170Z,101185.10
2018-07-05T04:37:54.032Z,101201.48
2018-07-05T04:40:34.127Z,101193.46
2018-07-05T04:43:14.205Z,101186.73
2018-07-05T04:45:53.927Z,101188.33
2018-07-05T04:48:34.428Z,101191.77
2018-07-05T04:51:14.360Z,101189.36
2018-07-05T04:53:54.537Z,101194.01
2018-07-05T04:56:34.395Z,101182.81
2018-07-05T04:59:14.376Z,101188.31
2018-07-05T05:01:54.211Z,101191.11
2018-07-05T05:04:34.341Z,101197.69
2018-07-05T05:07:14.217Z,101195.20
2018-07-05T05:09:54.038Z,101200.16
2018-07-05T05:12:33.803Z,101195.17
2018-07-05T05:15:13.623Z,101196.91
2018-07-05T05:17:53.625Z,101205.16
2018-07-05T05:20:33.732Z,101203.61
2018-07-05T05:23:14.192Z,101210.63
2018-07-05T05:25:54.239Z,101211.13
2018-07-05T05:28:34.483Z,101218.47
2018-07-05T05:31:14.418Z,101215.70
2018-07-05T05:33:54.534Z,101212.92
2018-07-05T05:36:34.782Z,101210.58
2018-07-05T05:39:14.678Z,101207.55
2018-07-05T05:41:54.998Z,101209.20
2018-07-05T05:44:34.742Z,101211.75
2018-07-05T05:47:14.936Z,101209.09
2018-07-05T05:49:55.142Z,101215.40
2018-07-05T05:52:35.167Z,101209.52
2018-07-05T05:55:15.382Z,101212.28
2018-07-05T05:57:55.624Z,101209.45
2018-07-05T06:00:36.336Z,101215.41
2018-07-05T06:03:16.548Z,101219.98
2018-07-05T06:05:56.778Z,101235.57
2018-07-05T06:08:36.840Z,101239.12
2018-07-05T06:11:17.055Z,101236.64
2018-07-05T06:13:57.146Z,101243.60
2018-07-05T06:16:37.545Z,101240.63
2018-07-05T06:19:17.917Z,101240.41
2018-07-05T06:21:57.824Z,101242.78
2018-07-05T06:24:37.792Z,101244.16
2018-07-05T06:27:17.756Z,101244.39
2018-07-05T06:29:57.970Z,101254.31
2018-07-05T06:32:37.948Z,101254.55
2018-07-05T06:35:18.366Z,101256.82
2018-07-05T06:37:58.549Z,101262.19
2018-07-05T06:40:38.788Z,101253.44
2018-07-05T06:43:18.794Z,101260.36
2018-07-05T06:45:58.745Z,101254.67
2018-07-05T06:48:38.653Z,101252.83
2018-07-05T06:51:18.572Z,101251.11
2018-07-05T06:53:58.782Z,101257.01
2018-07-05T06:56:38.852Z,101250.66
2018-07-05T06:59:19.115Z,101255.13
2018-07-05T07:01:59.322Z,101255.84
2018-07-05T07:04:39.567Z,101255.45
2018-07-05T07:07:19.419Z,101260.41
2018-07-05T07:09:59.267Z,101251.20
2018-07-05T07:12:39.336Z,101250.67
2018-07-05T07:15:19.540Z,101248.56
2018-07-05T07:17:59.532Z,101247.63
2018-07-05T07:20:39.568Z,101250.25
2018-07-05T07:23:19.498Z,101253.29
2018-07-05T07:25:59.465Z,101244.65
2018-07-05T07:28:39.474Z,101249.17
2018-07-05T07:31:19.426Z,101243.76
2018-07-05T07:33:59.248Z,101242.27
2018-07-05T07:36:39.187Z,101240.30
2018-07-05T07:39:19.088Z,101238.73
2018-07-05T07:41:49.020Z,101244.05
2018-07-05T07:44:17.846Z,101251.89
2018-07-05T07:46:45.849Z,101257.33
2018-07-05T07:49:13.668Z,101252.84
2018-07-05T07:51:41.530Z,101264.05
2018-07-05T07:54:09.246Z,101269.31
2018-07-05T07:56:36.980Z,101273.05
2018-07-05T07:59:04.415Z,101268.29
2018-07-05T08:01:31.865Z,101264.87
2018-07-05T08:03:59.314Z,101268.52
2018-07-05T08:06:27.030Z,101269.13
2018-07-05T08:08:54.679Z,101265.47
2018-07-05T08:11:22.350Z,101262.22
2018-07-05T08:13:50.148Z,101266.63
2018-07-05T08:16:17.630Z,101265.00
2018-07-05T08:18:45.023Z,101264.38
2018-07-05T08:21:12.705Z,101264.87
2018-07-05T08:23:41.342Z,101278.58
2018-07-05T08:26:08.766Z,101283.98
2018-07-05T08:28:36.874Z,101285.36
2018-07-05T08:31:04.307Z,101287.21
2018-07-05T08:33:31.795Z,101270.95
2018-07-05T08:35:59.285Z,101268.88
2018-07-05T08:38:26.770Z,101265.33
2018-07-05T08:40:54.250Z,101262.05
2018-07-05T08:43:21.937Z,101261.66
2018-07-05T08:45:49.767Z,101266.91
2018-07-05T08:48:17.222Z,101258.88
2018-07-05T08:50:45.095Z,101258.39
2018-07-05T08:53:12.844Z,101258.72
2018-07-05T08:55:40.313Z,101257.00
2018-07-05T08:58:07.827Z,101259.38
2018-07-05T09:00:35.632Z,101255.71
2018-07-05T09:03:03.590Z,101254.11
2018-07-05T09:05:31.332Z,101247.91
2018-07-05T09:07:58.999Z,101247.09
2018-07-05T09:10:26.407Z,101248.88
2018-07-05T09:12:54.267Z,101252.69
2018-07-05T09:15:21.687Z,101252.52
2018-07-05T09:17:49.909Z,101244.72
2018-07-05T09:20:17.155Z,101245.58
2018-07-05T09:22:44.577Z,101248.84
2018-07-05T09:25:12.361Z,101248.91
2018-07-05T09:27:39.782Z,101245.92
2018-07-05T09:30:07.448Z,101244.62
2018-07-05T09:32:35.226Z,101234.61
2018-07-05T09:35:02.680Z,101241.61
2018-07-05T09:37:30.436Z,101237.66
2018-07-05T09:39:58.288Z,101242.63
2018-07-05T09:42:26.160Z,101248.20
2018-07-05T09:44:53.938Z,101253.03
2018-07-05T09:47:21.790Z,101253.20
2018-07-05T09:49:49.574Z,101255.86
2018-07-05T09:52:17.255Z,101255.80
2018-07-05T09:54:45.084Z,101253.59
2018-07-05T09:57:12.531Z,101244.75
2018-07-05T09:59:40.200Z,101254.14
2018-07-05T10:02:07.801Z,101244.14
2018-07-05T10:04:35.626Z,101245.28
2018-07-05T10:07:03.721Z,101237.67
2018-07-05T10:09:31.199Z,101253.97
2018-07-05T10:11:58.625Z,101255.80
2018-07-05T10:14:26.139Z,101254.56
2018-07-05T10:16:53.843Z,101258.90
2018-07-05T10:19:21.622Z,101250.66
2018-07-05T10:21:49.095Z,101251.13
2018-07-05T10:24:16.588Z,101250.54
2018-07-05T10:26:44.100Z,101249.55
2018-07-05T10:29:23.782Z,101253.36
2018-07-05T10:32:04.389Z,101255.73
2018-07-05T10:34:32.141Z,101256.05
2018-07-05T10:37:00.050Z,101255.13
2018-07-05T10:39:27.458Z,101252.36
2018-07-05T10:42:07.729Z,101256.12
2018-07-05T10:44:47.474Z,101252.73
2018-07-05T10:47:27.478Z,101253.75
2018-07-05T10:50:07.742Z,101252.78
2018-07-05T10:52:47.576Z,101251.63
2018-07-05T10:55:27.603Z,101245.21
2018-07-05T10:58:07.637Z,101254.55
2018-07-05T11:00:48.089Z,101258.13
2018-07-05T11:03:28.028Z,101264.09
2018-07-05T11:06:07.687Z,101257.95
2018-07-05T11:08:48.046Z,101257.37
2018-07-05T11:11:28.055Z,101261.47
2018-07-05T11:14:07.962Z,101260.28
2018-07-05T11:16:48.320Z,101259.95
2018-07-05T11:19:28.036Z,101255.58
2018-07-05T11:22:07.951Z,101258.14
2018-07-05T11:24:48.153Z,101259.89
2018-07-05T11:27:27.997Z,101267.48
2018-07-05T11:30:08.209Z,101265.67
2018-07-05T11:32:50.481Z,101257.76
2018-07-05T11:35:30.566Z,101261.93
2018-07-05T11:38:10.493Z,101258.36
2018-07-05T11:40:50.599Z,101253.77
2018-07-05T11:43:30.438Z,101252.29
2018-07-05T11:46:10.347Z,101252.42
2018-07-05T11:48:50.205Z,101259.45
2018-07-05T11:51:30.939Z,101260.66
2018-07-05T11:54:11.055Z,101255.05
2018-07-05T11:56:51.262Z,101258.66
2018-07-05T11:59:31.644Z,101257.09
2018-07-05T12:02:11.944Z,101254.78
2018-07-05T12:04:52.184Z,101255.52
2018-07-05T12:07:32.423Z,101258.27
2018-07-05T12:10:12.373Z,101260.03
2018-07-05T12:12:52.607Z,101261.90
2018-07-05T12:15:32.661Z,101260.50
2018-07-05T12:18:13.076Z,101266.28
2018-07-05T12:20:52.822Z,101269.23
2018-07-05T12:23:33.108Z,101270.53
2018-07-05T12:26:12.763Z,101264.58
2018-07-05T12:28:53.404Z,101270.61
2018-07-05T12:31:33.695Z,101270.62
2018-07-05T12:34:13.552Z,101270.45
2018-07-05T12:36:53.443Z,101270.83
2018-07-05T12:39:33.289Z,101269.89
2018-07-05T12:42:14.124Z,101268.05
2018-07-05T12:44:54.321Z,101265.16
2018-07-05T12:47:34.139Z,101264.56
2018-07-05T12:50:13.918Z,101272.24
2018-07-05T12:52:53.939Z,101271.09
2018-07-05T12:55:34.367Z,101269.02
2018-07-05T12:58:14.188Z,101278.93
2018-07-05T13:00:54.422Z,101273.94
2018-07-05T13:03:34.539Z,101284.56
2018-07-05T13:06:14.690Z,101280.80
2018-07-05T13:08:54.645Z,101280.23
2018-07-05T13:11:34.851Z,101286.20
2018-07-05T13:14:14.835Z,101282.52
2018-07-05T13:16:54.743Z,101283.12
2018-07-05T13:19:34.670Z,101278.55
2018-07-05T13:22:15.547Z,101288.39
2018-07-05T13:24:55.565Z,101292.70
2018-07-05T13:27:35.400Z,101290.67
2018-07-05T13:30:15.432Z,101301.80
2018-07-05T13:32:55.327Z,101298.91
2018-07-05T13:35:35.257Z,101285.69
2018-07-05T13:38:15.164Z,101291.97
2018-07-05T13:40:55.126Z,101288.86
2018-07-05T13:43:35.040Z,101296.34
2018-07-05T13:46:14.935Z,101288.23
2018-07-05T13:48:54.852Z,101293.97
2018-07-05T13:51:34.697Z,101302.67
2018-07-05T13:54:14.528Z,101306.51
2018-07-05T13:56:54.676Z,101312.61
2018-07-05T13:59:34.781Z,101313.61
2018-07-05T14:02:15.071Z,101314.59
2018-07-05T14:04:54.838Z,101320.14
2018-07-05T14:07:34.592Z,101317.19
2018-07-05T14:10:14.873Z,101313.06
2018-07-05T14:12:55.902Z,101313.88
2018-07-05T14:15:35.561Z,101320.05
2018-07-05T14:18:15.372Z,101307.27
2018-07-05T14:20:55.423Z,101303.88
2018-07-05T14:23:35.302Z,101306.36
2018-07-05T14:26:15.096Z,101303.98
2018-07-05T14:28:55.011Z,101303.72
2018-07-05T14:31:34.970Z,101303.83
2018-07-05T14:34:14.704Z,101303.51
2018-07-05T14:36:55.058Z,101302.94
2018-07-05T14:39:34.866Z,101304.77
2018-07-05T14:42:14.964Z,101290.09
2018-07-05T14:44:54.868Z,101286.13
2018-07-05T14:47:34.663Z,101278.77
2018-07-05T14:50:14.569Z,101284.13
2018-07-05T14:52:54.903Z,101280.55
2018-07-05T14:55:34.862Z,101279.36
2018-07-05T14:58:15.024Z,101283.53
2018-07-05T15:00:55.122Z,101283.92
2018-07-05T15:03:35.229Z,101286.12
2018-07-05T15:06:15.212Z,101284.52
2018-07-05T15:08:55.251Z,101296.02
2018-07-05T15:11:35.219Z,101293.98
2018-07-05T15:14:15.168Z,101302.70
2018-07-05T15:16:55.168Z,101308.21
2018-07-05T15:19:35.293Z,101307.23
2018-07-05T15:22:15.662Z,101303.27
2018-07-05T15:24:55.273Z,101306.80
2018-07-05T15:27:35.239Z,101305.59
2018-07-05T15:30:15.517Z,101300.25
2018-07-05T15:32:55.421Z,101294.01
2018-07-05T15:35:35.171Z,101297.84
2018-07-05T15:38:14.994Z,101303.20
2018-07-05T15:40:54.913Z,101306.35
2018-07-05T15:43:35.096Z,101302.99
2018-07-05T15:46:15.810Z,101302.56
2018-07-05T15:48:55.963Z,101301.58
2018-07-05T15:51:36.129Z,101302.29
2018-07-05T15:54:15.962Z,101308.05
2018-07-05T15:56:56.136Z,101312.43
2018-07-05T15:59:35.876Z,101311.48
2018-07-05T16:02:16.021Z,101314.09
2018-07-05T16:04:55.978Z,101309.34
2018-07-05T16:07:35.759Z,101306.29
2018-07-05T16:10:15.785Z,101308.67
2018-07-05T16:12:56.065Z,101308.44
2018-07-05T16:15:35.964Z,101319.48
2018-07-05T16:18:15.909Z,101313.92
2018-07-05T16:20:56.103Z,101316.62
2018-07-05T16:23:35.983Z,101311.94
2018-07-05T16:26:16.196Z,101311.09
2018-07-05T16:28:56.085Z,101310.92
2018-07-05T16:31:36.367Z,101315.70
2018-07-05T16:34:16.723Z,101304.42
2018-07-05T16:36:56.881Z,101308.02
2018-07-05T16:39:37.212Z,101297.00
2018-07-05T16:42:17.063Z,101294.34
2018-07-05T16:44:57.126Z,101299.89
2018-07-05T16:47:36.897Z,101309.17
2018-07-05T16:50:23.305Z,101307.02
2018-07-05T16:53:03.235Z,101307.00
2018-07-05T16:55:43.225Z,101309.53
2018-07-05T16:58:23.667Z,101303.36
2018-07-05T17:01:03.650Z,101302.47
2018-07-05T17:03:43.533Z,101298.49
2018-07-05T17:06:23.671Z,101297.11
2018-07-05T17:09:05.461Z,101300.45
2018-07-05T17:11:45.213Z,101301.97
2018-07-05T17:14:25.659Z,101307.31
2018-07-05T17:17:05.469Z,101306.47
2018-07-05T17:19:45.666Z,101304.92
2018-07-05T17:22:25.600Z,101311.28
2018-07-05T17:25:05.486Z,101308.99
2018-07-05T17:27:45.222Z,101314.05
2018-07-05T17:30:25.294Z,101313.38
2018-07-05T17:33:04.969Z,101316.73
2018-07-05T17:35:44.824Z,101321.48
2018-07-05T17:38:24.801Z,101325.92
2018-07-05T17:41:04.704Z,101330.86
2018-07-05T17:43:44.522Z,101336.16
2018-07-05T17:46:24.636Z,101328.03
2018-07-05T17:49:04.780Z,101344.36
2018-07-05T17:51:44.731Z,101344.84
2018-07-05T17:54:24.820Z,101344.43
2018-07-05T17:57:04.813Z,101353.52
2018-07-05T17:59:45.388Z,101356.06
2018-07-05T18:02:25.284Z,101358.58
2018-07-05T18:05:05.711Z,101354.95
2018-07-05T18:07:46.078Z,101356.39
2018-07-05T18:10:26.177Z,101352.13
2018-07-05T18:13:06.086Z,101358.77
2018-07-05T18:15:47.355Z,101355.59
2018-07-05T18:18:27.181Z,101363.80
2018-07-05T18:21:07.384Z,101363.11
2018-07-05T18:23:47.599Z,101352.84
2018-07-05T18:26:27.479Z,101359.77
2018-07-05T18:29:07.927Z,101369.70
2018-07-05T18:31:47.610Z,101373.40
2018-07-05T18:34:27.881Z,101373.25
2018-07-05T18:37:09.327Z,101382.16
2018-07-05T18:39:49.189Z,101376.34
2018-07-05T18:42:29.579Z,101378.24
2018-07-05T18:45:10.026Z,101373.38
2018-07-05T18:47:50.026Z,101380.41
2018-07-05T18:50:29.864Z,101383.59
2018-07-05T18:53:09.646Z,101390.98
2018-07-05T18:55:49.746Z,101387.08
2018-07-05T18:58:29.751Z,101389.47
2018-07-05T19:01:09.740Z,101390.58
2018-07-05T19:03:50.230Z,101393.38
2018-07-05T19:06:30.015Z,101389.98
2018-07-05T19:09:09.864Z,101387.42
2018-07-05T19:11:49.767Z,101395.81
2018-07-05T19:14:29.420Z,101397.78
2018-07-05T19:17:09.653Z,101396.84
2018-07-05T19:19:49.576Z,101396.22
2018-07-05T19:22:29.893Z,101394.13
2018-07-05T19:25:09.835Z,101397.47
2018-07-05T19:27:49.944Z,101396.64
2018-07-05T19:30:30.097Z,101400.64
2018-07-05T19:33:12.546Z,101397.27
2018-07-05T19:35:52.251Z,101400.80
2018-07-05T19:38:32.724Z,101399.36
2018-07-05T19:41:12.822Z,101399.77
2018-07-05T19:43:53.010Z,101402.05
2018-07-05T19:46:33.787Z,101399.66
2018-07-05T19:49:13.435Z,101412.67
2018-07-05T19:51:53.663Z,101411.89
2018-07-05T19:54:33.418Z,101416.58
2018-07-05T19:57:13.381Z,101410.28
2018-07-05T19:59:53.182Z,101422.14
2018-07-05T20:02:33.479Z,101416.73
2018-07-05T20:05:13.533Z,101418.84
2018-07-05T20:07:53.494Z,101420.16
2018-07-05T20:10:33.434Z,101417.97
2018-07-05T20:13:13.742Z,101418.58
2018-07-05T20:15:53.864Z,101424.80
2018-07-05T20:18:33.766Z,101423.36
2018-07-05T20:21:13.506Z,101426.39
2018-07-05T20:23:53.620Z,101430.31
2018-07-05T20:26:33.626Z,101432.95
2018-07-05T20:29:13.462Z,101431.55
2018-07-05T20:31:53.359Z,101432.52
2018-07-05T20:34:33.391Z,101438.22
2018-07-05T20:37:13.253Z,101438.33
2018-07-05T20:39:53.309Z,101439.34
2018-07-05T20:42:33.173Z,101442.98
2018-07-05T20:45:13.031Z,101439.53
2018-07-05T20:47:53.133Z,101444.95
2018-07-05T20:50:33.037Z,101441.84
2018-07-05T20:53:12.885Z,101444.35
2018-07-05T20:55:52.770Z,101446.86
2018-07-05T20:58:33.018Z,101443.95
2018-07-05T21:01:12.758Z,101447.41
2018-07-05T21:03:52.465Z,101452.80
2018-07-05T21:06:32.273Z,101450.87
2018-07-05T21:09:12.148Z,101454.05
2018-07-05T21:11:52.095Z,101448.59
2018-07-05T21:14:32.252Z,101453.98
2018-07-05T21:17:12.098Z,101455.17
2018-07-05T21:19:52.032Z,101465.70
2018-07-05T21:22:32.212Z,101462.63
2018-07-05T21:25:12.139Z,101467.08
2018-07-05T21:27:52.324Z,101463.78
2018-07-05T21:30:32.185Z,101460.91
2018-07-05T21:33:12.332Z,101460.56
2018-07-05T21:35:52.643Z,101461.38
2018-07-05T21:38:33.065Z,101473.83
2018-07-05T21:41:13.140Z,101475.36
2018-07-05T21:43:52.869Z,101472.05
2018-07-05T21:46:33.059Z,101486.47
2018-07-05T21:49:12.792Z,101488.08
2018-07-05T21:51:52.552Z,101489.34
2018-07-05T21:54:32.860Z,101490.51
2018-07-05T21:57:12.930Z,101493.69
2018-07-05T21:59:53.003Z,101492.98
2018-07-05T22:02:32.833Z,101496.90
2018-07-05T22:05:12.995Z,101504.20
2018-07-05T22:07:54.032Z,101498.50
2018-07-05T22:10:33.740Z,101498.03
2018-07-05T22:13:13.777Z,101506.97
2018-07-05T22:15:53.635Z,101505.02
2018-07-05T22:18:38.897Z,101509.72
2018-07-05T22:21:18.693Z,101511.20
2018-07-05T22:24:03.935Z,101509.25
2018-07-05T22:26:48.168Z,101505.02
2018-07-05T22:29:33.593Z,101505.14
2018-07-05T22:32:13.486Z,101512.34
2018-07-05T22:34:53.313Z,101512.44
2018-07-05T22:37:33.835Z,101513.61
2018-07-05T22:40:13.622Z,101519.78
2018-07-05T22:42:53.833Z,101517.38
2018-07-05T22:45:33.771Z,101519.56
2018-07-05T22:48:13.862Z,101518.61
2018-07-05T22:50:53.721Z,101521.36
2018-07-05T22:53:33.854Z,101520.33
2018-07-05T22:56:13.690Z,101524.45
2018-07-05T22:58:53.499Z,101514.84
2018-07-05T23:01:33.448Z,101508.54
2018-07-05T23:04:13.687Z,101517.80
2018-07-05T23:06:53.884Z,101515.41
2018-07-05T23:09:33.700Z,101516.42
2018-07-05T23:12:13.514Z,101515.28
2018-07-05T23:14:54.096Z,101522.04
2018-07-05T23:17:33.750Z,101522.38
2018-07-05T23:20:13.738Z,101525.02
2018-07-05T23:22:53.851Z,101528.34
2018-07-05T23:25:33.916Z,101524.77
2018-07-05T23:28:14.014Z,101519.62
2018-07-05T23:30:53.758Z,101521.11
2018-07-05T23:33:33.624Z,101523.96
2018-07-05T23:36:13.879Z,101515.73
2018-07-05T23:38:53.748Z,101512.19
2018-07-05T23:41:33.863Z,101517.23
2018-07-05T23:44:14.126Z,101519.30
2018-07-05T23:46:54.251Z,101516.78
2018-07-05T23:49:34.473Z,101519.98
2018-07-05T23:52:14.685Z,101515.87
2018-07-05T23:54:55.068Z,101514.50
2018-07-05T23:57:34.883Z,101522.48
